createdAt,value
2024-03-12T00:00:33.237Z,100.00
2024-03-12T00:03:03.030Z,100.00
2024-03-12T00:05:30.776Z,100.00
2024-03-12T00:07:59.885Z,100.00
2024-03-12T00:10:28.766Z,100.00
2024-03-12T00:12:57.726Z,100.00
2024-03-12T00:15:27.111Z,100.00
2024-03-12T00:17:56.446Z,100.00
2024-03-12T00:20:31.768Z,100.00
2024-03-12T00:23:00.193Z,100.00
2024-03-12T00:25:29.348Z,100.00
2024-03-12T00:27:57.691Z,100.00
2024-03-12T00:30:27.027Z,100.00
2024-03-12T00:32:56.300Z,100.00
2024-03-12T00:35:29.665Z,100.00
2024-03-12T00:37:58.981Z,100.00
2024-03-12T00:40:34.261Z,100.00
2024-03-12T00:43:04.636Z,100.00
2024-03-12T00:45:39.270Z,100.00
2024-03-12T00:48:11.262Z,100.00
2024-03-12T00:50:40.970Z,100.00
2024-03-12T00:53:09.560Z,100.00
2024-03-12T00:55:38.085Z,100.00
2024-03-12T00:58:08.843Z,100.00
2024-03-12T01:00:38.646Z,100.00
2024-03-12T01:03:09.436Z,100.00
2024-03-12T01:05:40.078Z,100.00
2024-03-12T01:08:12.778Z,100.00
2024-03-12T01:10:41.872Z,100.00
2024-03-12T01:13:11.310Z,100.00
2024-03-12T01:15:40.275Z,100.00
2024-03-12T01:18:10.061Z,100.00
2024-03-12T01:20:38.599Z,100.00
2024-03-12T01:23:07.698Z,100.00
2024-03-12T01:25:38.350Z,100.00
2024-03-12T01:28:08.641Z,100.00
2024-03-12T01:30:37.904Z,100.00
2024-03-12T01:33:08.243Z,100.00
2024-03-12T01:35:39.718Z,100.00
2024-03-12T01:38:11.434Z,100.00
2024-03-12T01:40:42.617Z,100.00
2024-03-12T01:43:11.124Z,100.00
2024-03-12T01:45:39.311Z,100.00
2024-03-12T01:48:10.145Z,100.00
2024-03-12T01:50:40.619Z,100.00
2024-03-12T01:53:09.712Z,100.00
2024-03-12T01:55:45.203Z,100.00
2024-03-12T01:58:17.848Z,100.00
2024-03-12T02:00:47.579Z,100.00
2024-03-12T02:03:16.169Z,100.00
2024-03-12T02:05:44.514Z,100.00
2024-03-12T02:08:13.017Z,100.00
2024-03-12T02:10:41.336Z,100.00
2024-03-12T02:13:09.612Z,100.00
2024-03-12T02:15:40.422Z,100.00
2024-03-12T02:18:10.199Z,100.00
2024-03-12T02:20:39.116Z,100.00
2024-03-12T02:23:07.291Z,100.00
2024-03-12T02:25:36.429Z,100.00
2024-03-12T02:28:05.175Z,100.00
2024-03-12T02:30:33.427Z,100.00
2024-03-12T02:33:04.307Z,100.00
2024-03-12T02:35:36.159Z,100.00
2024-03-12T02:38:04.504Z,100.00
2024-03-12T02:40:32.219Z,100.00
2024-03-12T02:43:01.357Z,100.00
2024-03-12T02:45:29.621Z,100.00
2024-03-12T02:47:57.463Z,100.00
2024-03-12T02:50:26.364Z,100.00
2024-03-12T02:52:54.967Z,100.00
2024-03-12T02:55:22.743Z,100.00
2024-03-12T02:57:50.525Z,100.00
2024-03-12T03:00:21.142Z,100.00
2024-03-12T03:02:48.904Z,100.00
2024-03-12T03:05:16.700Z,100.00
2024-03-12T03:07:44.567Z,100.00
2024-03-12T03:10:13.930Z,100.00
2024-03-12T03:12:42.941Z,100.00
2024-03-12T03:15:13.288Z,100.00
2024-03-12T03:17:44.351Z,100.00
2024-03-12T03:20:15.527Z,100.00
2024-03-12T03:22:44.194Z,100.00
2024-03-12T03:25:14.444Z,100.00
2024-03-12T03:27:43.606Z,100.00
2024-03-12T03:30:14.170Z,100.00
2024-03-12T03:32:43.935Z,100.00
2024-03-12T03:35:12.321Z,100.00
2024-03-12T03:37:41.864Z,100.00
2024-03-12T03:40:12.661Z,100.00
2024-03-12T03:42:42.708Z,100.00
2024-03-12T03:45:10.663Z,100.00
2024-03-12T03:47:38.876Z,100.00
2024-03-12T03:50:09.116Z,100.00
2024-03-12T03:52:38.388Z,100.00
2024-03-12T03:55:07.773Z,100.00
2024-03-12T03:57:36.246Z,100.00
2024-03-12T04:00:13.499Z,100.00
2024-03-12T04:02:43.374Z,100.00
2024-03-12T04:05:13.432Z,100.00
2024-03-12T04:07:42.555Z,100.00
2024-03-12T04:10:12.499Z,100.00
2024-03-12T04:12:41.539Z,100.00
2024-03-12T04:15:10.731Z,100.00
2024-03-12T04:17:39.173Z,100.00
2024-03-12T04:20:10.457Z,100.00
2024-03-12T04:22:40.234Z,100.00
2024-03-12T04:25:09.996Z,100.00
2024-03-12T04:27:38.903Z,100.00
2024-03-12T04:30:07.891Z,100.00
2024-03-12T04:32:36.496Z,100.00
2024-03-12T04:35:06.044Z,100.00
2024-03-12T04:37:33.930Z,100.00
2024-03-12T04:40:08.603Z,100.00
2024-03-12T04:42:37.900Z,100.00
2024-03-12T04:45:06.260Z,100.00
2024-03-12T04:47:34.665Z,100.00
2024-03-12T04:50:04.254Z,100.00
2024-03-12T04:52:35.133Z,100.00
2024-03-12T04:55:06.223Z,100.00
2024-03-12T04:57:36.713Z,100.00
2024-03-12T05:00:14.434Z,100.00
2024-03-12T05:02:43.071Z,100.00
2024-03-12T05:05:12.796Z,100.00
2024-03-12T05:07:40.604Z,100.00
2024-03-12T05:10:12.482Z,100.00
2024-03-12T05:12:40.864Z,100.00
2024-03-12T05:15:10.706Z,100.00
2024-03-12T05:17:38.807Z,100.00
2024-03-12T05:20:10.994Z,100.00
2024-03-12T05:22:39.100Z,100.00
2024-03-12T05:27:58.728Z,100.00
2024-03-12T05:30:26.573Z,100.00
2024-03-12T05:32:55.708Z,100.00
2024-03-12T05:35:24.475Z,100.00
2024-03-12T05:38:11.304Z,100.00
2024-03-12T05:40:44.731Z,100.00
2024-03-12T05:43:33.088Z,100.00
2024-03-12T05:46:18.645Z,100.00
2024-03-12T05:48:52.023Z,100.00
2024-03-12T05:51:20.810Z,100.00
2024-03-12T05:53:49.365Z,100.00
2024-03-12T05:56:19.135Z,100.00
2024-03-12T05:58:49.244Z,100.00
2024-03-12T06:01:18.723Z,100.00
2024-03-12T06:03:46.904Z,100.00
2024-03-12T06:06:14.880Z,100.00
2024-03-12T06:08:42.609Z,100.00
2024-03-12T06:11:10.362Z,100.00
2024-03-12T06:13:39.691Z,100.00
2024-03-12T06:16:09.303Z,100.00
2024-03-12T06:18:37.692Z,100.00
2024-03-12T06:21:07.375Z,100.00
2024-03-12T06:23:36.803Z,100.00
2024-03-12T06:26:06.365Z,100.00
2024-03-12T06:28:35.929Z,100.00
2024-03-12T06:31:05.936Z,100.00
2024-03-12T06:33:36.223Z,100.00
2024-03-12T06:36:04.424Z,100.00
2024-03-12T06:38:32.528Z,100.00
2024-03-12T06:41:00.243Z,100.00
2024-03-12T06:43:29.222Z,100.00
2024-03-12T06:45:57.123Z,100.00
2024-03-12T06:48:24.907Z,100.00
2024-03-12T06:50:54.586Z,100.00
2024-03-12T06:53:23.006Z,100.00
2024-03-12T06:55:50.833Z,100.00
2024-03-12T06:58:22.232Z,100.00
2024-03-12T07:00:52.268Z,100.00
2024-03-12T07:03:23.435Z,100.00
2024-03-12T07:05:52.178Z,100.00
2024-03-12T07:08:26.954Z,100.00
2024-03-12T07:10:56.781Z,100.00
2024-03-12T07:13:27.737Z,100.00
2024-03-12T07:15:55.607Z,100.00
2024-03-12T07:18:25.039Z,100.00
2024-03-12T07:20:56.022Z,100.00
2024-03-12T07:23:25.535Z,100.00
2024-03-12T07:25:53.634Z,100.00
2024-03-12T07:28:24.696Z,100.00
2024-03-12T07:30:53.328Z,100.00
2024-03-12T07:33:21.188Z,100.00
2024-03-12T07:35:49.409Z,100.00
2024-03-12T07:38:17.698Z,100.00
2024-03-12T07:40:46.915Z,100.00
2024-03-12T07:43:15.273Z,100.00
2024-03-12T07:45:47.752Z,100.00
2024-03-12T07:48:16.672Z,100.00
2024-03-12T07:50:45.256Z,100.00
2024-03-12T07:53:14.146Z,100.00
2024-03-12T07:55:44.911Z,100.00
2024-03-12T07:58:14.791Z,100.00
2024-03-12T08:00:43.409Z,100.00
2024-03-12T08:03:12.937Z,100.00
2024-03-12T08:05:40.918Z,100.00
2024-03-12T08:08:10.323Z,100.00
2024-03-12T08:10:39.397Z,100.00
2024-03-12T08:13:07.534Z,100.00
2024-03-12T08:15:37.437Z,100.00
2024-03-12T08:18:13.399Z,100.00
2024-03-12T08:20:48.113Z,100.00
2024-03-12T08:23:16.539Z,100.00
2024-03-12T08:28:18.015Z,100.00
2024-03-12T08:30:48.100Z,100.00
2024-03-12T08:33:18.930Z,100.00
2024-03-12T08:35:47.050Z,100.00
2024-03-12T08:38:16.213Z,100.00
2024-03-12T08:40:44.508Z,100.00
2024-03-12T08:43:14.218Z,100.00
2024-03-12T08:45:42.526Z,100.00
2024-03-12T08:48:11.819Z,100.00
2024-03-12T08:50:40.289Z,100.00
2024-03-12T08:53:13.257Z,100.00
2024-03-12T08:55:42.284Z,100.00
2024-03-12T08:58:10.497Z,100.00
2024-03-12T09:00:38.978Z,100.00
2024-03-12T09:03:07.242Z,100.00
2024-03-12T09:05:37.405Z,100.00
2024-03-12T09:08:05.980Z,100.00
2024-03-12T09:10:34.838Z,100.00
2024-03-12T09:13:03.405Z,100.00
2024-03-12T09:15:32.486Z,100.00
2024-03-12T09:18:06.053Z,100.00
2024-03-12T09:20:34.937Z,100.00
2024-03-12T09:23:04.539Z,100.00
2024-03-12T09:25:32.722Z,100.00
2024-03-12T09:28:01.771Z,100.00
2024-03-12T09:30:30.380Z,100.00
2024-03-12T09:32:58.636Z,100.00
2024-03-12T09:35:27.149Z,99.78
2024-03-12T09:37:55.555Z,94.11
2024-03-12T09:40:25.106Z,95.74
2024-03-12T09:42:57.658Z,92.76
2024-03-12T09:45:25.692Z,86.57
2024-03-12T09:47:53.916Z,84.99
2024-03-12T09:50:24.478Z,84.16
2024-03-12T09:52:53.302Z,82.95
2024-03-12T09:55:23.866Z,82.36
2024-03-12T09:57:53.650Z,80.96
2024-03-12T10:00:24.057Z,80.92
2024-03-12T10:02:52.004Z,83.50
2024-03-12T10:05:23.520Z,77.51
2024-03-12T10:08:08.925Z,78.95
2024-03-12T10:10:40.411Z,75.16
2024-03-12T10:13:16.180Z,75.35
2024-03-12T10:15:57.452Z,73.77
2024-03-12T10:18:28.039Z,73.66
2024-03-12T10:20:57.973Z,73.45
2024-03-12T10:23:27.954Z,75.49
2024-03-12T10:26:08.900Z,75.92
2024-03-12T10:28:39.039Z,74.10
2024-03-12T10:31:11.402Z,72.93
2024-03-12T10:33:41.761Z,74.40
2024-03-12T10:36:11.812Z,71.31
2024-03-12T10:38:41.875Z,72.61
2024-03-12T10:41:22.553Z,70.67
2024-03-12T10:43:56.308Z,69.11
2024-03-12T10:46:27.092Z,67.07
2024-03-12T10:48:56.246Z,67.46
2024-03-12T10:51:24.147Z,67.37
2024-03-12T10:53:55.004Z,67.33
2024-03-12T10:56:23.175Z,68.05
2024-03-12T10:58:56.379Z,69.92
2024-03-12T11:01:25.304Z,70.18
2024-03-12T11:03:58.017Z,68.73
2024-03-12T11:06:27.794Z,68.06
2024-03-12T11:08:57.687Z,69.70
2024-03-12T11:11:27.009Z,70.56
2024-03-12T11:13:58.071Z,66.93
2024-03-12T11:16:33.038Z,68.36
2024-03-12T11:19:20.715Z,68.05
2024-03-12T11:21:51.277Z,67.91
2024-03-12T11:24:28.417Z,65.85
2024-03-12T11:26:56.959Z,65.75
2024-03-12T11:29:58.183Z,66.80
2024-03-12T11:32:30.925Z,65.02
2024-03-12T11:34:59.256Z,64.43
2024-03-12T11:37:27.377Z,62.80
2024-03-12T11:40:28.322Z,61.40
2024-03-12T11:42:57.273Z,66.45
2024-03-12T11:45:41.031Z,62.93
2024-03-12T11:48:11.500Z,65.30
2024-03-12T11:51:57.430Z,67.03
2024-03-12T11:54:46.403Z,62.46
2024-03-12T11:57:24.947Z,61.81
2024-03-12T11:59:55.698Z,64.36
2024-03-12T12:02:24.764Z,62.53
2024-03-12T12:04:53.653Z,64.01
2024-03-12T12:07:24.457Z,61.58
2024-03-12T12:09:54.281Z,63.73
2024-03-12T12:12:23.109Z,65.88
2024-03-12T12:14:54.025Z,66.03
2024-03-12T12:17:24.213Z,66.06
2024-03-12T12:20:16.360Z,65.55
2024-03-12T12:22:48.539Z,62.44
2024-03-12T12:25:20.505Z,60.91
2024-03-12T12:27:49.164Z,60.26
2024-03-12T12:30:22.360Z,62.25
2024-03-12T12:32:53.012Z,64.74
2024-03-12T12:35:22.421Z,59.97
2024-03-12T12:37:52.540Z,60.74
2024-03-12T12:40:23.248Z,60.56
2024-03-12T12:42:55.019Z,62.90
2024-03-12T12:45:26.102Z,62.43
2024-03-12T12:47:54.231Z,65.29
2024-03-12T12:50:31.423Z,61.68
2024-03-12T12:53:02.610Z,60.22
2024-03-12T12:55:31.458Z,63.65
2024-03-12T12:58:00.980Z,64.01
2024-03-12T13:00:29.580Z,59.63
2024-03-12T13:03:14.116Z,58.90
2024-03-12T13:05:42.735Z,60.43
2024-03-12T13:08:31.352Z,60.30
2024-03-12T13:11:07.013Z,60.37
2024-03-12T13:13:36.823Z,61.80
2024-03-12T13:16:14.626Z,60.78
2024-03-12T13:18:45.077Z,62.36
2024-03-12T13:21:13.559Z,61.12
2024-03-12T13:23:44.457Z,60.85
2024-03-12T13:26:14.556Z,61.91
2024-03-12T13:28:43.054Z,60.65
2024-03-12T13:31:12.916Z,59.92
2024-03-12T13:33:41.889Z,62.48
2024-03-12T13:36:12.285Z,63.45
2024-03-12T13:38:41.780Z,62.87
2024-03-12T13:41:12.622Z,63.44
2024-03-12T13:43:42.123Z,58.05
2024-03-12T13:46:11.385Z,58.54
2024-03-12T13:48:41.946Z,58.23
2024-03-12T13:51:11.071Z,60.37
2024-03-12T13:53:40.453Z,61.65
2024-03-12T13:56:11.578Z,60.49
2024-03-12T13:58:41.818Z,59.97
2024-03-12T14:01:14.380Z,59.26
2024-03-12T14:03:43.400Z,60.84
2024-03-12T14:06:11.760Z,62.98
2024-03-12T14:08:39.492Z,61.54
2024-03-12T14:11:08.595Z,60.59
2024-03-12T14:13:38.133Z,60.66
2024-03-12T14:16:09.020Z,61.99
2024-03-12T14:18:39.281Z,62.84
2024-03-12T14:21:07.373Z,63.07
2024-03-12T14:23:35.144Z,61.18
2024-03-12T14:26:03.371Z,61.96
2024-03-12T14:28:32.026Z,62.52
2024-03-12T14:31:01.757Z,62.17
2024-03-12T14:33:30.152Z,60.96
2024-03-12T14:35:58.664Z,61.89
2024-03-12T14:38:26.905Z,63.62
2024-03-12T14:40:56.086Z,63.04
2024-03-12T14:43:25.589Z,63.30
2024-03-12T14:45:53.789Z,64.00
2024-03-12T14:48:22.972Z,62.82
2024-03-12T14:50:50.772Z,63.20
2024-03-12T14:53:18.698Z,65.22
2024-03-12T14:55:46.853Z,65.43
2024-03-12T14:58:15.130Z,64.56
2024-03-12T15:00:43.921Z,64.12
2024-03-12T15:03:14.149Z,65.24
2024-03-12T15:05:44.764Z,66.12
2024-03-12T15:08:12.709Z,66.27
2024-03-12T15:10:40.439Z,66.71
2024-03-12T15:13:08.469Z,67.26
2024-03-12T15:15:36.485Z,66.77
2024-03-12T15:18:06.020Z,66.49
2024-03-12T15:20:34.077Z,67.17
2024-03-12T15:23:04.834Z,68.91
2024-03-12T15:25:32.684Z,69.86
2024-03-12T15:28:00.703Z,71.00
2024-03-12T15:30:29.404Z,72.04
2024-03-12T15:32:58.015Z,72.79
2024-03-12T15:35:26.641Z,73.95
2024-03-12T15:37:55.219Z,74.26
2024-03-12T15:40:26.188Z,75.42
2024-03-12T15:42:53.967Z,76.05
2024-03-12T15:45:23.133Z,75.91
2024-03-12T15:47:50.885Z,76.29
2024-03-12T15:50:19.105Z,76.46
2024-03-12T15:52:47.564Z,76.84
2024-03-12T15:55:16.093Z,75.74
2024-03-12T15:57:46.883Z,74.25
2024-03-12T16:00:16.126Z,75.16
2024-03-12T16:02:44.127Z,72.13
2024-03-12T16:05:11.982Z,73.43
2024-03-12T16:07:41.277Z,74.92
2024-03-12T16:10:10.735Z,75.85
2024-03-12T16:12:41.771Z,75.78
2024-03-12T16:15:14.177Z,75.87
2024-03-12T16:17:43.699Z,75.76
2024-03-12T16:20:15.430Z,74.13
2024-03-12T16:22:44.543Z,74.54
2024-03-12T16:25:13.145Z,75.36
2024-03-12T16:27:44.133Z,75.94
2024-03-12T16:30:15.653Z,76.42
2024-03-12T16:32:44.795Z,77.00
2024-03-12T16:35:13.529Z,76.27
2024-03-12T16:37:41.599Z,77.05
2024-03-12T16:40:12.302Z,76.98
2024-03-12T16:42:40.222Z,77.45
2024-03-12T16:45:10.204Z,78.64
2024-03-12T16:47:39.367Z,78.61
2024-03-12T16:50:10.675Z,79.24
2024-03-12T16:52:40.043Z,79.43
2024-03-12T16:55:09.208Z,79.55
2024-03-12T16:57:38.253Z,80.07
2024-03-12T17:00:11.833Z,79.92
2024-03-12T17:02:44.589Z,80.30
2024-03-12T17:05:15.849Z,80.25
2024-03-12T17:07:49.533Z,79.73
2024-03-12T17:10:17.942Z,80.29
2024-03-12T17:12:46.418Z,80.60
2024-03-12T17:15:17.054Z,81.41
2024-03-12T17:17:47.335Z,82.01
2024-03-12T17:20:16.606Z,81.25
2024-03-12T17:22:46.421Z,82.12
2024-03-12T17:25:18.722Z,82.99
2024-03-12T17:27:48.474Z,82.68
2024-03-12T17:30:17.505Z,83.38
2024-03-12T17:32:47.915Z,84.47
2024-03-12T17:35:17.417Z,84.17
2024-03-12T17:37:46.543Z,84.94
2024-03-12T17:40:16.319Z,85.44
2024-03-12T17:42:46.254Z,85.32
2024-03-12T17:45:17.292Z,85.60
2024-03-12T17:47:49.540Z,85.76
2024-03-12T17:50:20.199Z,86.69
2024-03-12T17:52:52.050Z,87.63
2024-03-12T17:55:21.884Z,87.91
2024-03-12T17:57:52.266Z,87.83
2024-03-12T18:00:22.710Z,88.01
2024-03-12T18:02:52.943Z,88.08
2024-03-12T18:05:21.852Z,88.50
2024-03-12T18:07:53.654Z,87.94
2024-03-12T18:10:25.087Z,89.21
2024-03-12T18:12:53.954Z,89.35
2024-03-12T18:15:25.106Z,90.27
2024-03-12T18:17:55.139Z,90.90
2024-03-12T18:20:30.722Z,91.47
2024-03-12T18:22:59.981Z,92.58
2024-03-12T18:25:28.181Z,93.33
2024-03-12T18:27:57.087Z,93.14
2024-03-12T18:30:26.305Z,93.07
2024-03-12T18:32:56.484Z,93.48
2024-03-12T18:35:24.975Z,93.54
2024-03-12T18:37:53.502Z,93.48
2024-03-12T18:40:23.891Z,91.70
2024-03-12T18:42:52.361Z,91.90
2024-03-12T18:45:21.339Z,91.96
2024-03-12T18:47:51.619Z,92.54
2024-03-12T18:50:25.811Z,93.54
2024-03-12T18:52:54.497Z,94.82
2024-03-12T18:55:24.578Z,94.58
2024-03-12T18:57:53.529Z,95.72
2024-03-12T19:00:25.156Z,95.35
2024-03-12T19:02:54.998Z,95.56
2024-03-12T19:05:25.831Z,96.26
2024-03-12T19:07:56.613Z,97.00
2024-03-12T19:10:30.950Z,97.73
2024-03-12T19:13:00.480Z,98.23
2024-03-12T19:15:37.693Z,98.71
2024-03-12T19:18:14.251Z,97.79
2024-03-12T19:20:44.842Z,98.53
2024-03-12T19:23:12.988Z,99.16
2024-03-12T19:25:41.790Z,98.87
2024-03-12T19:28:09.910Z,98.90
2024-03-12T19:30:38.467Z,99.57
2024-03-12T19:33:07.938Z,99.62
2024-03-12T19:35:36.328Z,99.84
2024-03-12T19:38:07.007Z,99.72
2024-03-12T19:40:36.011Z,99.36
2024-03-12T19:43:04.595Z,100.00
2024-03-12T19:45:35.079Z,100.00
2024-03-12T19:48:03.277Z,100.00
2024-03-12T19:50:31.903Z,100.00
2024-03-12T19:53:00.304Z,100.00
2024-03-12T19:55:31.483Z,100.00
2024-03-12T19:58:02.015Z,100.00
2024-03-12T20:00:31.792Z,100.00
2024-03-12T20:03:01.189Z,100.00
2024-03-12T20:05:31.661Z,100.00
2024-03-12T20:08:03.323Z,100.00
2024-03-12T20:10:33.194Z,100.00
2024-03-12T20:13:06.334Z,100.00
2024-03-12T20:15:38.517Z,100.00
2024-03-12T20:18:07.588Z,100.00
2024-03-12T20:20:36.714Z,100.00
2024-03-12T20:23:06.985Z,100.00
2024-03-12T20:25:36.697Z,100.00
2024-03-12T20:28:11.367Z,100.00
2024-03-12T20:30:40.971Z,100.00
2024-03-12T20:33:12.295Z,100.00
2024-03-12T20:35:40.316Z,100.00
2024-03-12T20:38:10.420Z,100.00
2024-03-12T20:40:41.002Z,100.00
2024-03-12T20:43:09.590Z,100.00
2024-03-12T20:45:39.446Z,100.00
2024-03-12T20:48:11.678Z,100.00
2024-03-12T20:50:41.461Z,100.00
2024-03-12T20:53:11.827Z,100.00
2024-03-12T20:55:41.283Z,100.00
2024-03-12T20:58:09.839Z,100.00
2024-03-12T21:00:39.388Z,100.00
2024-03-12T21:03:10.580Z,100.00
2024-03-12T21:05:40.738Z,100.00
2024-03-12T21:08:08.918Z,100.00
2024-03-12T21:10:38.933Z,100.00
2024-03-12T21:13:08.828Z,100.00
2024-03-12T21:15:36.887Z,100.00
2024-03-12T21:18:07.597Z,100.00
2024-03-12T21:20:35.745Z,100.00
2024-03-12T21:23:05.290Z,100.00
2024-03-12T21:25:34.322Z,100.00
2024-03-12T21:28:02.836Z,100.00
2024-03-12T21:30:34.656Z,100.00
2024-03-12T21:33:03.043Z,100.00
2024-03-12T21:35:31.506Z,100.00
2024-03-12T21:37:59.796Z,100.00
2024-03-12T21:40:29.802Z,100.00
2024-03-12T21:42:58.408Z,100.00
2024-03-12T21:45:26.986Z,100.00
2024-03-12T21:47:56.487Z,100.00
2024-03-12T21:50:24.510Z,100.00
2024-03-12T21:52:52.259Z,100.00
2024-03-12T21:55:21.808Z,100.00
2024-03-12T21:57:50.371Z,100.00
2024-03-12T22:00:21.144Z,100.00
2024-03-12T22:02:50.256Z,100.00
2024-03-12T22:05:20.856Z,100.00
2024-03-12T22:07:50.320Z,100.00
2024-03-12T22:10:18.721Z,100.00
2024-03-12T22:12:48.473Z,100.00
2024-03-12T22:15:16.911Z,100.00
2024-03-12T22:17:45.645Z,100.00
2024-03-12T22:20:16.645Z,100.00
2024-03-12T22:22:47.352Z,100.00
2024-03-12T22:25:15.326Z,100.00
2024-03-12T22:27:44.396Z,100.00
2024-03-12T22:30:13.649Z,100.00
2024-03-12T22:32:43.410Z,100.00
2024-03-12T22:35:11.863Z,100.00
2024-03-12T22:37:40.728Z,100.00
2024-03-12T22:40:13.321Z,100.00
2024-03-12T22:42:42.103Z,100.00
2024-03-12T22:45:12.328Z,100.00
2024-03-12T22:47:41.145Z,100.00
2024-03-12T22:50:10.916Z,100.00
2024-03-12T22:52:39.225Z,100.00
2024-03-12T22:55:10.091Z,100.00
2024-03-12T22:57:39.979Z,100.00
2024-03-12T23:00:15.284Z,100.00
2024-03-12T23:02:45.352Z,100.00
2024-03-12T23:05:14.635Z,100.00
2024-03-12T23:07:42.648Z,100.00
2024-03-12T23:10:13.730Z,100.00
2024-03-12T23:12:43.844Z,100.00
2024-03-12T23:15:12.845Z,100.00
2024-03-12T23:17:40.640Z,100.00
2024-03-12T23:20:14.187Z,100.00
2024-03-12T23:22:42.172Z,100.00
2024-03-12T23:25:11.760Z,100.00
2024-03-12T23:27:40.247Z,100.00
2024-03-12T23:30:09.837Z,100.00
2024-03-12T23:32:37.976Z,100.00
2024-03-12T23:35:06.533Z,100.00
2024-03-12T23:37:34.631Z,100.00
2024-03-12T23:40:02.997Z,100.00
2024-03-12T23:42:32.048Z,100.00
2024-03-12T23:45:01.960Z,100.00
2024-03-12T23:47:29.701Z,100.00
2024-03-12T23:49:58.182Z,100.00
2024-03-12T23:52:26.791Z,100.00
2024-03-12T23:54:54.937Z,100.00
2024-03-12T23:57:22.621Z,100.00
2024-03-12T23:59:52.065Z,100.00
